sensor_id;sensor_type;location;lat;lon;timestamp;P1;durP1;ratioP1;P2;durP2;ratioP2
7295;SDS011;40758;54.038;11.684;2023-09-19T00:00:43;1.88;;;0.73;;
7295;SDS011;40758;54.038;11.684;2023-09-19T00:03:14;2.53;;;0.60;;
7295;SDS011;40758;54.038;11.684;2023-09-19T00:05:41;2.30;;;0.90;;
7295;SDS011;40758;54.038;11.684;2023-09-19T00:08:12;3.65;;;0.95;;
7295;SDS011;40758;54.038;11.684;2023-09-19T00:10:40;3.17;;;0.80;;
7295;SDS011;40758;54.038;11.684;2023-09-19T00:13:09;3.67;;;3.30;;
7295;SDS011;40758;54.038;11.684;2023-09-19T00:15:45;1.55;;;0.63;;
7295;SDS011;40758;54.038;11.684;2023-09-19T00:18:18;3.65;;;1.02;;
7295;SDS011;40758;54.038;11.684;2023-09-19T00:20:47;2.00;;;0.90;;
7295;SDS011;40758;54.038;11.684;2023-09-19T00:23:16;2.60;;;1.30;;
7295;SDS011;40758;54.038;11.684;2023-09-19T00:25:43;2.83;;;1.08;;
7295;SDS011;40758;54.038;11.684;2023-09-19T00:28:11;2.55;;;0.70;;
7295;SDS011;40758;54.038;11.684;2023-09-19T00:30:39;2.97;;;1.00;;
7295;SDS011;40758;54.038;11.684;2023-09-19T00:33:09;2.20;;;0.70;;
7295;SDS011;40758;54.038;11.684;2023-09-19T00:35:37;4.07;;;0.80;;
7295;SDS011;40758;54.038;11.684;2023-09-19T00:38:04;2.13;;;1.00;;
7295;SDS011;40758;54.038;11.684;2023-09-19T00:40:33;2.17;;;0.60;;
7295;SDS011;40758;54.038;11.684;2023-09-19T00:43:00;3.28;;;1.48;;
7295;SDS011;40758;54.038;11.684;2023-09-19T00:45:27;2.90;;;0.90;;
7295;SDS011;40758;54.038;11.684;2023-09-19T00:47:55;2.20;;;1.27;;
7295;SDS011;40758;54.038;11.684;2023-09-19T00:50:24;2.95;;;1.60;;
7295;SDS011;40758;54.038;11.684;2023-09-19T00:52:55;2.90;;;1.08;;
7295;SDS011;40758;54.038;11.684;2023-09-19T00:55:25;2.33;;;1.08;;
7295;SDS011;40758;54.038;11.684;2023-09-19T00:57:56;3.00;;;1.17;;
7295;SDS011;40758;54.038;11.684;2023-09-19T01:00:23;3.85;;;0.68;;
7295;SDS011;40758;54.038;11.684;2023-09-19T01:02:51;3.70;;;0.88;;
7295;SDS011;40758;54.038;11.684;2023-09-19T01:05:18;3.60;;;1.35;;
7295;SDS011;40758;54.038;11.684;2023-09-19T01:07:45;4.32;;;1.40;;
7295;SDS011;40758;54.038;11.684;2023-09-19T01:10:15;3.33;;;1.02;;
7295;SDS011;40758;54.038;11.684;2023-09-19T01:21:23;3.00;;;0.80;;
7295;SDS011;40758;54.038;11.684;2023-09-19T01:27:51;4.57;;;1.15;;
7295;SDS011;40758;54.038;11.684;2023-09-19T01:29:44;2.85;;;0.60;;
7295;SDS011;40758;54.038;11.684;2023-09-19T01:32:33;3.50;;;1.10;;
7295;SDS011;40758;54.038;11.684;2023-09-19T01:35:01;3.50;;;1.00;;
7295;SDS011;40758;54.038;11.684;2023-09-19T01:37:30;2.45;;;0.90;;
7295;SDS011;40758;54.038;11.684;2023-09-19T01:39:58;3.45;;;1.00;;
7295;SDS011;40758;54.038;11.684;2023-09-19T01:42:35;2.42;;;0.98;;
7295;SDS011;40758;54.038;11.684;2023-09-19T01:45:13;4.35;;;1.35;;
7295;SDS011;40758;54.038;11.684;2023-09-19T01:47:59;2.53;;;0.98;;
7295;SDS011;40758;54.038;11.684;2023-09-19T01:53:33;3.25;;;1.63;;
7295;SDS011;40758;54.038;11.684;2023-09-19T01:56:05;4.80;;;1.27;;
7295;SDS011;40758;54.038;11.684;2023-09-19T01:58:41;3.50;;;1.33;;
7295;SDS011;40758;54.038;11.684;2023-09-19T02:01:22;4.28;;;1.92;;
7295;SDS011;40758;54.038;11.684;2023-09-19T02:03:50;3.42;;;1.55;;
7295;SDS011;40758;54.038;11.684;2023-09-19T02:06:19;6.13;;;1.40;;
7295;SDS011;40758;54.038;11.684;2023-09-19T02:08:47;6.07;;;1.85;;
7295;SDS011;40758;54.038;11.684;2023-09-19T02:11:15;4.32;;;1.30;;
7295;SDS011;40758;54.038;11.684;2023-09-19T02:13:42;4.70;;;2.28;;
7295;SDS011;40758;54.038;11.684;2023-09-19T02:16:09;5.60;;;1.92;;
7295;SDS011;40758;54.038;11.684;2023-09-19T02:18:38;5.25;;;1.63;;
7295;SDS011;40758;54.038;11.684;2023-09-19T02:21:06;3.65;;;1.20;;
7295;SDS011;40758;54.038;11.684;2023-09-19T02:23:33;4.57;;;1.60;;
7295;SDS011;40758;54.038;11.684;2023-09-19T02:25:59;5.18;;;2.95;;
7295;SDS011;40758;54.038;11.684;2023-09-19T02:28:30;5.30;;;1.23;;
7295;SDS011;40758;54.038;11.684;2023-09-19T02:30:58;3.40;;;1.77;;
7295;SDS011;40758;54.038;11.684;2023-09-19T02:33:25;4.85;;;1.25;;
7295;SDS011;40758;54.038;11.684;2023-09-19T02:35:55;5.13;;;2.55;;
7295;SDS011;40758;54.038;11.684;2023-09-19T02:38:27;3.72;;;1.30;;
7295;SDS011;40758;54.038;11.684;2023-09-19T02:43:25;4.22;;;1.70;;
7295;SDS011;40758;54.038;11.684;2023-09-19T02:45:52;5.38;;;2.25;;
7295;SDS011;40758;54.038;11.684;2023-09-19T02:48:20;5.00;;;2.25;;
7295;SDS011;40758;54.038;11.684;2023-09-19T02:50:50;7.25;;;1.30;;
7295;SDS011;40758;54.038;11.684;2023-09-19T02:53:17;5.47;;;3.15;;
7295;SDS011;40758;54.038;11.684;2023-09-19T02:55:43;4.28;;;1.73;;
7295;SDS011;40758;54.038;11.684;2023-09-19T02:58:10;3.42;;;2.78;;
7295;SDS011;40758;54.038;11.684;2023-09-19T03:00:39;5.13;;;2.08;;
7295;SDS011;40758;54.038;11.684;2023-09-19T03:03:08;5.07;;;2.05;;
7295;SDS011;40758;54.038;11.684;2023-09-19T03:05:35;4.20;;;2.00;;
7295;SDS011;40758;54.038;11.684;2023-09-19T03:08:01;4.10;;;1.20;;
7295;SDS011;40758;54.038;11.684;2023-09-19T03:10:32;4.68;;;1.85;;
7295;SDS011;40758;54.038;11.684;2023-09-19T03:12:58;4.70;;;1.92;;
7295;SDS011;40758;54.038;11.684;2023-09-19T03:15:26;4.95;;;2.40;;
7295;SDS011;40758;54.038;11.684;2023-09-19T03:17:53;5.57;;;4.20;;
7295;SDS011;40758;54.038;11.684;2023-09-19T03:20:20;8.07;;;2.35;;
7295;SDS011;40758;54.038;11.684;2023-09-19T03:22:47;6.10;;;3.08;;
7295;SDS011;40758;54.038;11.684;2023-09-19T03:25:15;5.80;;;3.25;;
7295;SDS011;40758;54.038;11.684;2023-09-19T03:27:44;6.20;;;3.03;;
7295;SDS011;40758;54.038;11.684;2023-09-19T03:30:10;5.90;;;2.92;;
7295;SDS011;40758;54.038;11.684;2023-09-19T03:32:43;6.20;;;3.15;;
7295;SDS011;40758;54.038;11.684;2023-09-19T03:35:11;5.40;;;1.70;;
7295;SDS011;40758;54.038;11.684;2023-09-19T03:37:40;3.92;;;2.38;;
7295;SDS011;40758;54.038;11.684;2023-09-19T03:40:08;4.78;;;2.22;;
7295;SDS011;40758;54.038;11.684;2023-09-19T03:42:40;5.43;;;2.50;;
7295;SDS011;40758;54.038;11.684;2023-09-19T03:45:10;5.80;;;2.33;;
7295;SDS011;40758;54.038;11.684;2023-09-19T03:47:46;4.57;;;1.50;;
7295;SDS011;40758;54.038;11.684;2023-09-19T03:50:16;7.40;;;3.28;;
7295;SDS011;40758;54.038;11.684;2023-09-19T03:52:44;4.72;;;2.72;;
7295;SDS011;40758;54.038;11.684;2023-09-19T03:55:11;4.72;;;2.22;;
7295;SDS011;40758;54.038;11.684;2023-09-19T03:57:38;4.03;;;2.25;;
7295;SDS011;40758;54.038;11.684;2023-09-19T04:00:06;5.07;;;2.58;;
7295;SDS011;40758;54.038;11.684;2023-09-19T04:02:45;8.48;;;3.45;;
7295;SDS011;40758;54.038;11.684;2023-09-19T04:05:12;4.57;;;2.95;;
7295;SDS011;40758;54.038;11.684;2023-09-19T04:07:39;6.43;;;2.72;;
7295;SDS011;40758;54.038;11.684;2023-09-19T04:10:06;5.57;;;3.20;;
7295;SDS011;40758;54.038;11.684;2023-09-19T04:12:35;8.95;;;3.40;;
7295;SDS011;40758;54.038;11.684;2023-09-19T04:15:02;6.63;;;3.22;;
7295;SDS011;40758;54.038;11.684;2023-09-19T04:17:31;6.25;;;3.72;;
7295;SDS011;40758;54.038;11.684;2023-09-19T04:20:01;5.95;;;3.20;;
7295;SDS011;40758;54.038;11.684;2023-09-19T04:22:28;7.50;;;2.90;;
7295;SDS011;40758;54.038;11.684;2023-09-19T04:24:56;5.65;;;2.33;;
7295;SDS011;40758;54.038;11.684;2023-09-19T04:27:23;7.22;;;4.30;;
7295;SDS011;40758;54.038;11.684;2023-09-19T04:29:49;6.18;;;3.08;;
7295;SDS011;40758;54.038;11.684;2023-09-19T04:32:17;5.68;;;2.67;;
7295;SDS011;40758;54.038;11.684;2023-09-19T04:34:44;7.53;;;4.32;;
7295;SDS011;40758;54.038;11.684;2023-09-19T04:37:10;5.78;;;3.67;;
7295;SDS011;40758;54.038;11.684;2023-09-19T04:39:37;8.50;;;3.65;;
7295;SDS011;40758;54.038;11.684;2023-09-19T04:42:05;8.00;;;3.72;;
7295;SDS011;40758;54.038;11.684;2023-09-19T04:44:32;5.18;;;3.50;;
7295;SDS011;40758;54.038;11.684;2023-09-19T04:46:59;7.10;;;4.45;;
7295;SDS011;40758;54.038;11.684;2023-09-19T04:49:26;6.90;;;2.88;;
7295;SDS011;40758;54.038;11.684;2023-09-19T04:51:53;7.28;;;4.47;;
7295;SDS011;40758;54.038;11.684;2023-09-19T04:54:22;7.38;;;4.32;;
7295;SDS011;40758;54.038;11.684;2023-09-19T04:56:49;7.05;;;3.83;;
7295;SDS011;40758;54.038;11.684;2023-09-19T04:59:16;10.93;;;5.60;;
7295;SDS011;40758;54.038;11.684;2023-09-19T05:01:42;7.05;;;4.15;;
7295;SDS011;40758;54.038;11.684;2023-09-19T05:04:09;6.50;;;4.22;;
7295;SDS011;40758;54.038;11.684;2023-09-19T05:06:36;6.30;;;4.00;;
7295;SDS011;40758;54.038;11.684;2023-09-19T05:09:03;6.40;;;4.38;;
7295;SDS011;40758;54.038;11.684;2023-09-19T05:11:32;6.28;;;4.25;;
7295;SDS011;40758;54.038;11.684;2023-09-19T05:14:03;5.97;;;2.92;;
7295;SDS011;40758;54.038;11.684;2023-09-19T05:16:30;5.78;;;4.18;;
7295;SDS011;40758;54.038;11.684;2023-09-19T05:19:01;4.93;;;2.17;;
7295;SDS011;40758;54.038;11.684;2023-09-19T05:21:28;7.95;;;3.55;;
7295;SDS011;40758;54.038;11.684;2023-09-19T05:23:56;6.07;;;3.40;;
7295;SDS011;40758;54.038;11.684;2023-09-19T05:26:24;4.18;;;2.00;;
7295;SDS011;40758;54.038;11.684;2023-09-19T05:28:51;5.55;;;2.35;;
7295;SDS011;40758;54.038;11.684;2023-09-19T05:31:19;3.90;;;1.58;;
7295;SDS011;40758;54.038;11.684;2023-09-19T05:33:47;5.72;;;2.53;;
7295;SDS011;40758;54.038;11.684;2023-09-19T05:36:13;6.47;;;1.98;;
7295;SDS011;40758;54.038;11.684;2023-09-19T05:38:43;6.28;;;2.75;;
7295;SDS011;40758;54.038;11.684;2023-09-19T05:41:11;6.25;;;2.15;;
7295;SDS011;40758;54.038;11.684;2023-09-19T05:43:40;5.40;;;2.42;;
7295;SDS011;40758;54.038;11.684;2023-09-19T05:46:08;5.72;;;1.95;;
7295;SDS011;40758;54.038;11.684;2023-09-19T05:48:35;4.97;;;1.88;;
7295;SDS011;40758;54.038;11.684;2023-09-19T05:51:02;6.53;;;2.42;;
7295;SDS011;40758;54.038;11.684;2023-09-19T05:53:29;4.15;;;1.92;;
7295;SDS011;40758;54.038;11.684;2023-09-19T05:55:56;6.43;;;2.38;;
7295;SDS011;40758;54.038;11.684;2023-09-19T05:58:23;5.30;;;2.13;;
7295;SDS011;40758;54.038;11.684;2023-09-19T06:00:49;5.80;;;1.92;;
7295;SDS011;40758;54.038;11.684;2023-09-19T06:03:16;5.00;;;3.47;;
7295;SDS011;40758;54.038;11.684;2023-09-19T06:05:44;5.72;;;2.85;;
7295;SDS011;40758;54.038;11.684;2023-09-19T06:10:39;7.85;;;2.53;;
7295;SDS011;40758;54.038;11.684;2023-09-19T06:13:05;5.72;;;2.58;;
7295;SDS011;40758;54.038;11.684;2023-09-19T06:15:32;4.18;;;1.90;;
7295;SDS011;40758;54.038;11.684;2023-09-19T06:18:02;6.10;;;2.08;;
7295;SDS011;40758;54.038;11.684;2023-09-19T06:20:32;5.28;;;1.95;;
7295;SDS011;40758;54.038;11.684;2023-09-19T06:22:59;5.68;;;1.73;;
7295;SDS011;40758;54.038;11.684;2023-09-19T06:25:29;4.88;;;1.55;;
7295;SDS011;40758;54.038;11.684;2023-09-19T06:27:56;5.45;;;2.03;;
7295;SDS011;40758;54.038;11.684;2023-09-19T06:30:23;4.57;;;1.52;;
7295;SDS011;40758;54.038;11.684;2023-09-19T06:32:55;5.07;;;1.73;;
7295;SDS011;40758;54.038;11.684;2023-09-19T06:35:26;8.02;;;2.10;;
7295;SDS011;40758;54.038;11.684;2023-09-19T06:37:56;10.95;;;1.98;;
7295;SDS011;40758;54.038;11.684;2023-09-19T06:40:25;5.05;;;1.10;;
7295;SDS011;40758;54.038;11.684;2023-09-19T06:42:52;5.40;;;1.58;;
7295;SDS011;40758;54.038;11.684;2023-09-19T06:45:20;4.47;;;1.20;;
7295;SDS011;40758;54.038;11.684;2023-09-19T06:47:49;4.93;;;1.23;;
7295;SDS011;40758;54.038;11.684;2023-09-19T06:50:18;5.38;;;1.60;;
7295;SDS011;40758;54.038;11.684;2023-09-19T06:52:52;6.10;;;1.67;;
7295;SDS011;40758;54.038;11.684;2023-09-19T06:55:21;4.50;;;1.13;;
7295;SDS011;40758;54.038;11.684;2023-09-19T06:57:51;7.78;;;0.90;;
7295;SDS011;40758;54.038;11.684;2023-09-19T07:00:21;4.78;;;1.33;;
7295;SDS011;40758;54.038;11.684;2023-09-19T07:05:23;5.90;;;1.38;;
7295;SDS011;40758;54.038;11.684;2023-09-19T07:07:49;4.30;;;3.72;;
7295;SDS011;40758;54.038;11.684;2023-09-19T07:10:16;4.32;;;1.65;;
7295;SDS011;40758;54.038;11.684;2023-09-19T07:12:44;4.20;;;1.33;;
7295;SDS011;40758;54.038;11.684;2023-09-19T07:15:12;4.78;;;1.00;;
7295;SDS011;40758;54.038;11.684;2023-09-19T07:17:39;5.30;;;1.10;;
7295;SDS011;40758;54.038;11.684;2023-09-19T07:20:06;3.63;;;0.93;;
7295;SDS011;40758;54.038;11.684;2023-09-19T07:22:34;6.28;;;1.63;;
7295;SDS011;40758;54.038;11.684;2023-09-19T07:25:01;4.72;;;0.77;;
7295;SDS011;40758;54.038;11.684;2023-09-19T07:27:28;4.30;;;0.90;;
7295;SDS011;40758;54.038;11.684;2023-09-19T07:29:55;3.58;;;0.70;;
7295;SDS011;40758;54.038;11.684;2023-09-19T07:32:21;3.55;;;0.52;;
7295;SDS011;40758;54.038;11.684;2023-09-19T07:34:49;6.88;;;1.10;;
7295;SDS011;40758;54.038;11.684;2023-09-19T07:37:15;5.57;;;0.80;;
7295;SDS011;40758;54.038;11.684;2023-09-19T07:39:42;3.30;;;1.15;;
7295;SDS011;40758;54.038;11.684;2023-09-19T07:42:12;7.07;;;1.08;;
7295;SDS011;40758;54.038;11.684;2023-09-19T07:44:44;3.65;;;1.00;;
7295;SDS011;40758;54.038;11.684;2023-09-19T07:47:14;5.35;;;1.38;;
7295;SDS011;40758;54.038;11.684;2023-09-19T07:49:40;4.13;;;1.33;;
7295;SDS011;40758;54.038;11.684;2023-09-19T07:54:36;5.95;;;2.53;;
7295;SDS011;40758;54.038;11.684;2023-09-19T07:57:05;4.05;;;1.02;;
7295;SDS011;40758;54.038;11.684;2023-09-19T07:59:31;8.85;;;2.28;;
7295;SDS011;40758;54.038;11.684;2023-09-19T08:01:59;6.30;;;1.23;;
7295;SDS011;40758;54.038;11.684;2023-09-19T08:04:30;5.20;;;1.30;;
7295;SDS011;40758;54.038;11.684;2023-09-19T08:06:59;6.70;;;1.40;;
7295;SDS011;40758;54.038;11.684;2023-09-19T08:09:26;3.60;;;1.20;;
7295;SDS011;40758;54.038;11.684;2023-09-19T08:11:54;4.22;;;0.77;;
7295;SDS011;40758;54.038;11.684;2023-09-19T08:14:20;4.57;;;1.13;;
7295;SDS011;40758;54.038;11.684;2023-09-19T08:16:49;5.38;;;1.35;;
7295;SDS011;40758;54.038;11.684;2023-09-19T08:19:16;4.95;;;1.45;;
7295;SDS011;40758;54.038;11.684;2023-09-19T08:21:42;5.13;;;1.73;;
7295;SDS011;40758;54.038;11.684;2023-09-19T08:24:13;4.13;;;1.30;;
7295;SDS011;40758;54.038;11.684;2023-09-19T08:26:41;5.85;;;1.40;;
7295;SDS011;40758;54.038;11.684;2023-09-19T08:29:11;6.20;;;1.25;;
7295;SDS011;40758;54.038;11.684;2023-09-19T08:31:39;7.40;;;1.73;;
7295;SDS011;40758;54.038;11.684;2023-09-19T08:34:06;3.92;;;0.77;;
7295;SDS011;40758;54.038;11.684;2023-09-19T08:36:33;5.43;;;1.13;;
7295;SDS011;40758;54.038;11.684;2023-09-19T08:39:00;5.82;;;2.15;;
7295;SDS011;40758;54.038;11.684;2023-09-19T08:41:27;6.03;;;0.90;;
7295;SDS011;40758;54.038;11.684;2023-09-19T08:43:53;5.35;;;1.65;;
7295;SDS011;40758;54.038;11.684;2023-09-19T08:46:20;4.57;;;1.55;;
7295;SDS011;40758;54.038;11.684;2023-09-19T08:49:03;6.43;;;1.98;;
7295;SDS011;40758;54.038;11.684;2023-09-19T08:51:41;4.78;;;1.58;;
7295;SDS011;40758;54.038;11.684;2023-09-19T08:56:45;6.72;;;1.52;;
7295;SDS011;40758;54.038;11.684;2023-09-19T08:59:14;6.82;;;1.20;;
7295;SDS011;40758;54.038;11.684;2023-09-19T09:01:42;7.07;;;1.45;;
7295;SDS011;40758;54.038;11.684;2023-09-19T09:04:09;5.47;;;1.23;;
7295;SDS011;40758;54.038;11.684;2023-09-19T09:06:39;6.38;;;1.83;;
7295;SDS011;40758;54.038;11.684;2023-09-19T09:09:10;6.35;;;1.90;;
7295;SDS011;40758;54.038;11.684;2023-09-19T09:11:37;7.05;;;1.90;;
7295;SDS011;40758;54.038;11.684;2023-09-19T09:14:06;7.63;;;1.88;;
7295;SDS011;40758;54.038;11.684;2023-09-19T09:16:34;6.22;;;1.60;;
7295;SDS011;40758;54.038;11.684;2023-09-19T09:19:01;6.50;;;1.30;;
7295;SDS011;40758;54.038;11.684;2023-09-19T09:21:28;6.32;;;0.93;;
7295;SDS011;40758;54.038;11.684;2023-09-19T09:23:55;5.78;;;1.38;;
7295;SDS011;40758;54.038;11.684;2023-09-19T09:29:06;4.65;;;1.20;;
7295;SDS011;40758;54.038;11.684;2023-09-19T09:31:33;7.38;;;1.73;;
7295;SDS011;40758;54.038;11.684;2023-09-19T09:34:00;4.65;;;1.23;;
7295;SDS011;40758;54.038;11.684;2023-09-19T09:36:38;7.00;;;2.08;;
7295;SDS011;40758;54.038;11.684;2023-09-19T09:41:51;5.90;;;1.70;;
7295;SDS011;40758;54.038;11.684;2023-09-19T09:44:20;6.07;;;1.95;;
7295;SDS011;40758;54.038;11.684;2023-09-19T09:46:50;5.28;;;0.82;;
7295;SDS011;40758;54.038;11.684;2023-09-19T09:49:23;4.38;;;1.20;;
7295;SDS011;40758;54.038;11.684;2023-09-19T09:52:04;6.93;;;1.65;;
7295;SDS011;40758;54.038;11.684;2023-09-19T09:55:02;4.18;;;1.05;;
7295;SDS011;40758;54.038;11.684;2023-09-19T09:57:34;5.97;;;1.25;;
7295;SDS011;40758;54.038;11.684;2023-09-19T10:00:02;5.10;;;1.42;;
7295;SDS011;40758;54.038;11.684;2023-09-19T10:02:42;4.28;;;1.42;;
7295;SDS011;40758;54.038;11.684;2023-09-19T10:05:17;3.85;;;1.15;;
7295;SDS011;40758;54.038;11.684;2023-09-19T10:07:54;4.95;;;1.52;;
7295;SDS011;40758;54.038;11.684;2023-09-19T10:10:36;7.55;;;2.05;;
7295;SDS011;40758;54.038;11.684;2023-09-19T10:13:07;7.20;;;1.25;;
7295;SDS011;40758;54.038;11.684;2023-09-19T10:15:44;5.60;;;1.33;;
7295;SDS011;40758;54.038;11.684;2023-09-19T10:18:41;8.10;;;3.30;;
7295;SDS011;40758;54.038;11.684;2023-09-19T10:21:09;4.80;;;2.22;;
7295;SDS011;40758;54.038;11.684;2023-09-19T10:23:37;5.20;;;1.70;;
7295;SDS011;40758;54.038;11.684;2023-09-19T10:26:09;5.95;;;1.42;;
7295;SDS011;40758;54.038;11.684;2023-09-19T10:31:05;4.53;;;1.85;;
7295;SDS011;40758;54.038;11.684;2023-09-19T10:33:36;4.75;;;1.48;;
7295;SDS011;40758;54.038;11.684;2023-09-19T10:36:04;6.28;;;1.27;;
7295;SDS011;40758;54.038;11.684;2023-09-19T10:38:31;5.47;;;1.50;;
7295;SDS011;40758;54.038;11.684;2023-09-19T10:41:02;5.60;;;1.05;;
7295;SDS011;40758;54.038;11.684;2023-09-19T10:43:30;4.53;;;2.47;;
7295;SDS011;40758;54.038;11.684;2023-09-19T10:46:02;7.68;;;1.73;;
7295;SDS011;40758;54.038;11.684;2023-09-19T10:48:33;5.00;;;1.95;;
7295;SDS011;40758;54.038;11.684;2023-09-19T10:53:45;3.30;;;1.00;;
7295;SDS011;40758;54.038;11.684;2023-09-19T10:56:18;6.20;;;1.48;;
7295;SDS011;40758;54.038;11.684;2023-09-19T10:58:50;6.05;;;1.80;;
7295;SDS011;40758;54.038;11.684;2023-09-19T11:03:44;3.22;;;1.27;;
7295;SDS011;40758;54.038;11.684;2023-09-19T11:06:13;4.53;;;1.45;;
7295;SDS011;40758;54.038;11.684;2023-09-19T11:09:02;4.45;;;1.42;;
7295;SDS011;40758;54.038;11.684;2023-09-19T11:11:49;5.25;;;1.52;;
7295;SDS011;40758;54.038;11.684;2023-09-19T11:30:32;4.40;;;1.65;;
7295;SDS011;40758;54.038;11.684;2023-09-19T11:36:16;5.95;;;1.80;;
7295;SDS011;40758;54.038;11.684;2023-09-19T11:43:49;6.18;;;1.77;;
7295;SDS011;40758;54.038;11.684;2023-09-19T11:46:22;6.72;;;2.40;;
7295;SDS011;40758;54.038;11.684;2023-09-19T11:48:49;4.95;;;1.27;;
7295;SDS011;40758;54.038;11.684;2023-09-19T11:51:18;7.18;;;2.50;;
7295;SDS011;40758;54.038;11.684;2023-09-19T11:53:50;4.80;;;2.13;;
7295;SDS011;40758;54.038;11.684;2023-09-19T11:56:19;6.80;;;1.88;;
7295;SDS011;40758;54.038;11.684;2023-09-19T11:58:51;5.47;;;1.30;;
7295;SDS011;40758;54.038;11.684;2023-09-19T12:03:52;6.13;;;1.40;;
7295;SDS011;40758;54.038;11.684;2023-09-19T12:06:21;5.25;;;0.80;;
7295;SDS011;40758;54.038;11.684;2023-09-19T12:08:49;3.85;;;0.85;;
7295;SDS011;40758;54.038;11.684;2023-09-19T12:11:17;3.00;;;1.33;;
7295;SDS011;40758;54.038;11.684;2023-09-19T12:13:44;5.60;;;1.90;;
7295;SDS011;40758;54.038;11.684;2023-09-19T12:16:19;3.30;;;1.17;;
7295;SDS011;40758;54.038;11.684;2023-09-19T12:18:49;4.53;;;1.42;;
7295;SDS011;40758;54.038;11.684;2023-09-19T12:23:57;8.52;;;1.55;;
7295;SDS011;40758;54.038;11.684;2023-09-19T12:26:26;6.47;;;1.55;;
7295;SDS011;40758;54.038;11.684;2023-09-19T12:28:55;4.43;;;2.25;;
7295;SDS011;40758;54.038;11.684;2023-09-19T12:31:22;5.75;;;1.20;;
7295;SDS011;40758;54.038;11.684;2023-09-19T12:33:58;9.00;;;1.50;;
7295;SDS011;40758;54.038;11.684;2023-09-19T12:36:28;4.63;;;0.88;;
7295;SDS011;40758;54.038;11.684;2023-09-19T12:39:00;7.40;;;1.95;;
7295;SDS011;40758;54.038;11.684;2023-09-19T12:41:34;4.43;;;0.95;;
7295;SDS011;40758;54.038;11.684;2023-09-19T12:44:01;3.15;;;0.88;;
7295;SDS011;40758;54.038;11.684;2023-09-19T12:46:28;5.82;;;1.10;;
7295;SDS011;40758;54.038;11.684;2023-09-19T12:49:17;6.50;;;1.33;;
7295;SDS011;40758;54.038;11.684;2023-09-19T12:51:45;5.22;;;1.77;;
7295;SDS011;40758;54.038;11.684;2023-09-19T12:54:13;5.13;;;1.08;;
7295;SDS011;40758;54.038;11.684;2023-09-19T12:56:44;5.85;;;1.48;;
7295;SDS011;40758;54.038;11.684;2023-09-19T12:59:14;4.70;;;1.42;;
7295;SDS011;40758;54.038;11.684;2023-09-19T13:01:42;4.82;;;1.00;;
7295;SDS011;40758;54.038;11.684;2023-09-19T13:04:21;4.63;;;2.42;;
7295;SDS011;40758;54.038;11.684;2023-09-19T13:06:56;5.63;;;1.30;;
7295;SDS011;40758;54.038;11.684;2023-09-19T13:09:28;4.93;;;1.23;;
7295;SDS011;40758;54.038;11.684;2023-09-19T13:12:01;3.08;;;1.20;;
7295;SDS011;40758;54.038;11.684;2023-09-19T13:14:30;3.83;;;1.15;;
7295;SDS011;40758;54.038;11.684;2023-09-19T13:17:07;7.70;;;1.48;;
7295;SDS011;40758;54.038;11.684;2023-09-19T13:19:46;3.97;;;1.10;;
7295;SDS011;40758;54.038;11.684;2023-09-19T13:25:13;7.50;;;1.63;;
7295;SDS011;40758;54.038;11.684;2023-09-19T13:27:44;5.28;;;0.70;;
7295;SDS011;40758;54.038;11.684;2023-09-19T13:30:14;9.57;;;1.65;;
7295;SDS011;40758;54.038;11.684;2023-09-19T13:32:41;4.00;;;1.23;;
7295;SDS011;40758;54.038;11.684;2023-09-19T13:35:11;3.03;;;0.82;;
7295;SDS011;40758;54.038;11.684;2023-09-19T13:37:39;5.65;;;1.65;;
7295;SDS011;40758;54.038;11.684;2023-09-19T13:40:10;4.07;;;1.13;;
7295;SDS011;40758;54.038;11.684;2023-09-19T13:42:38;5.40;;;1.52;;
7295;SDS011;40758;54.038;11.684;2023-09-19T13:45:06;6.05;;;1.52;;
7295;SDS011;40758;54.038;11.684;2023-09-19T13:47:34;6.22;;;1.80;;
7295;SDS011;40758;54.038;11.684;2023-09-19T13:50:02;5.65;;;1.48;;
7295;SDS011;40758;54.038;11.684;2023-09-19T13:52:31;5.13;;;1.65;;
7295;SDS011;40758;54.038;11.684;2023-09-19T13:54:58;5.35;;;1.08;;
7295;SDS011;40758;54.038;11.684;2023-09-19T13:57:26;4.75;;;1.20;;
7295;SDS011;40758;54.038;11.684;2023-09-19T13:59:53;7.03;;;1.95;;
7295;SDS011;40758;54.038;11.684;2023-09-19T14:02:21;6.13;;;1.30;;
7295;SDS011;40758;54.038;11.684;2023-09-19T14:04:52;8.57;;;2.03;;
7295;SDS011;40758;54.038;11.684;2023-09-19T14:07:19;3.42;;;0.88;;
7295;SDS011;40758;54.038;11.684;2023-09-19T14:09:46;5.22;;;1.70;;
7295;SDS011;40758;54.038;11.684;2023-09-19T14:12:14;4.57;;;1.42;;
7295;SDS011;40758;54.038;11.684;2023-09-19T14:14:42;6.13;;;1.42;;
7295;SDS011;40758;54.038;11.684;2023-09-19T14:17:09;6.30;;;1.25;;
7295;SDS011;40758;54.038;11.684;2023-09-19T14:19:36;4.43;;;0.93;;
7295;SDS011;40758;54.038;11.684;2023-09-19T14:22:04;3.92;;;1.50;;
7295;SDS011;40758;54.038;11.684;2023-09-19T14:24:34;6.45;;;1.20;;
7295;SDS011;40758;54.038;11.684;2023-09-19T14:27:01;3.75;;;1.60;;
7295;SDS011;40758;54.038;11.684;2023-09-19T14:29:30;9.00;;;1.27;;
7295;SDS011;40758;54.038;11.684;2023-09-19T14:31:58;4.20;;;1.52;;
7295;SDS011;40758;54.038;11.684;2023-09-19T14:34:25;5.05;;;1.30;;
7295;SDS011;40758;54.038;11.684;2023-09-19T14:36:52;5.95;;;1.67;;
7295;SDS011;40758;54.038;11.684;2023-09-19T14:39:21;7.63;;;1.63;;
7295;SDS011;40758;54.038;11.684;2023-09-19T14:41:47;4.22;;;1.73;;
7295;SDS011;40758;54.038;11.684;2023-09-19T14:44:14;5.85;;;1.70;;
7295;SDS011;40758;54.038;11.684;2023-09-19T14:46:42;7.93;;;1.88;;
7295;SDS011;40758;54.038;11.684;2023-09-19T14:49:11;6.85;;;1.88;;
7295;SDS011;40758;54.038;11.684;2023-09-19T14:51:38;6.22;;;1.88;;
7295;SDS011;40758;54.038;11.684;2023-09-19T14:54:10;4.90;;;1.17;;
7295;SDS011;40758;54.038;11.684;2023-09-19T14:56:38;7.22;;;2.22;;
7295;SDS011;40758;54.038;11.684;2023-09-19T14:59:08;4.47;;;1.75;;
7295;SDS011;40758;54.038;11.684;2023-09-19T15:01:37;6.03;;;2.78;;
7295;SDS011;40758;54.038;11.684;2023-09-19T15:04:08;5.18;;;4.05;;
7295;SDS011;40758;54.038;11.684;2023-09-19T15:06:35;5.65;;;1.88;;
7295;SDS011;40758;54.038;11.684;2023-09-19T15:09:04;5.90;;;1.45;;
7295;SDS011;40758;54.038;11.684;2023-09-19T15:11:31;4.22;;;1.80;;
7295;SDS011;40758;54.038;11.684;2023-09-19T15:13:58;4.10;;;1.50;;
7295;SDS011;40758;54.038;11.684;2023-09-19T15:16:25;5.38;;;2.13;;
7295;SDS011;40758;54.038;11.684;2023-09-19T15:21:21;3.88;;;1.27;;
7295;SDS011;40758;54.038;11.684;2023-09-19T15:23:48;4.03;;;1.20;;
7295;SDS011;40758;54.038;11.684;2023-09-19T15:26:15;6.10;;;1.55;;
7295;SDS011;40758;54.038;11.684;2023-09-19T15:28:48;3.30;;;1.40;;
7295;SDS011;40758;54.038;11.684;2023-09-19T15:31:16;3.88;;;0.85;;
7295;SDS011;40758;54.038;11.684;2023-09-19T15:33:43;4.13;;;1.23;;
7295;SDS011;40758;54.038;11.684;2023-09-19T15:36:13;5.30;;;1.77;;
7295;SDS011;40758;54.038;11.684;2023-09-19T15:41:19;6.82;;;1.55;;
7295;SDS011;40758;54.038;11.684;2023-09-19T15:46:14;4.80;;;0.95;;
7295;SDS011;40758;54.038;11.684;2023-09-19T15:48:42;5.60;;;1.63;;
7295;SDS011;40758;54.038;11.684;2023-09-19T15:51:10;6.00;;;1.52;;
7295;SDS011;40758;54.038;11.684;2023-09-19T15:53:47;5.60;;;1.20;;
7295;SDS011;40758;54.038;11.684;2023-09-19T15:56:16;6.30;;;1.73;;
7295;SDS011;40758;54.038;11.684;2023-09-19T15:58:44;5.80;;;1.75;;
7295;SDS011;40758;54.038;11.684;2023-09-19T16:01:12;3.63;;;2.17;;
7295;SDS011;40758;54.038;11.684;2023-09-19T16:03:44;5.07;;;1.42;;
7295;SDS011;40758;54.038;11.684;2023-09-19T16:06:16;5.60;;;2.10;;
7295;SDS011;40758;54.038;11.684;2023-09-19T16:08:45;5.07;;;1.20;;
7295;SDS011;40758;54.038;11.684;2023-09-19T16:11:17;5.65;;;1.40;;
7295;SDS011;40758;54.038;11.684;2023-09-19T16:13:47;6.20;;;1.77;;
7295;SDS011;40758;54.038;11.684;2023-09-19T16:16:16;8.32;;;2.42;;
7295;SDS011;40758;54.038;11.684;2023-09-19T16:18:46;8.18;;;2.13;;
7295;SDS011;40758;54.038;11.684;2023-09-19T16:21:24;5.38;;;2.10;;